Time;durP1;ratioP1;P1;durP2;ratioP2;P2;SDS_P1;SDS_P2;PMS_P1;PMS_P2;Temp;Humidity;BMP_temperature;BMP_pressure;BME280_temperature;BME280_humidity;BME280_pressure;Samples;Min_cycle;Max_cycle;Signal;HPM_P1;HPM_P2
2021/03/11 00:00:45;;;;;;;20.87;15.13;;;9.00;88.90;;;;;;5074083;28;20456;-75
2021/03/11 00:03:13;;;;;;;21.83;15.60;;;9.00;89.20;;;;;;5074050;28;20440;-75
2021/03/11 00:05:40;;;;;;;21.00;14.20;;;9.00;88.80;;;;;;5073921;28;20462;-75
2021/03/11 00:08:07;;;;;;;21.23;14.67;;;9.10;88.40;;;;;;5073542;28;20475;-75
2021/03/11 00:10:34;;;;;;;18.07;14.27;;;9.10;88.30;;;;;;5073695;28;20935;-74
2021/03/11 00:13:02;;;;;;;18.37;13.50;;;9.20;88.10;;;;;;5073797;28;20483;-74
2021/03/11 00:15:28;;;;;;;20.17;13.20;;;9.10;87.70;;;;;;5073805;28;20440;-74
2021/03/11 00:17:54;;;;;;;19.07;12.77;;;9.20;87.30;;;;;;5073712;28;20460;-74
2021/03/11 00:20:23;;;;;;;17.07;12.03;;;9.20;87.20;;;;;;5073749;28;20445;-74
2021/03/11 00:22:50;;;;;;;16.07;11.67;;;9.20;86.30;;;;;;5073713;28;20447;-75
2021/03/11 00:25:18;;;;;;;16.93;11.30;;;9.20;86.30;;;;;;5073765;28;20440;-74
2021/03/11 00:27:45;;;;;;;18.20;10.17;;;9.20;86.60;;;;;;5073604;28;20522;-74
2021/03/11 00:30:14;;;;;;;15.90;12.20;;;9.20;86.40;;;;;;5073659;28;20452;-74
2021/03/11 00:32:41;;;;;;;15.03;11.30;;;9.30;86.70;;;;;;5073529;28;20482;-74
2021/03/11 00:35:09;;;;;;;15.80;11.63;;;9.20;85.90;;;;;;5073278;28;20923;-74
2021/03/11 00:37:36;;;;;;;15.40;10.67;;;9.20;86.00;;;;;;5073144;28;20847;-75
2021/03/11 00:40:03;;;;;;;15.37;11.50;;;9.20;86.30;;;;;;5073514;28;20440;-75
2021/03/11 00:42:29;;;;;;;19.03;11.30;;;9.30;86.40;;;;;;5073469;28;20441;-75
2021/03/11 00:44:55;;;;;;;18.40;10.83;;;9.30;86.50;;;;;;5073448;28;20440;-74
2021/03/11 00:47:23;;;;;;;14.20;9.97;;;9.30;86.90;;;;;;5073335;28;20444;-74
2021/03/11 00:49:49;;;;;;;19.23;11.53;;;9.30;87.00;;;;;;5073436;28;20440;-75
2021/03/11 00:52:15;;;;;;;13.93;9.40;;;9.30;87.20;;;;;;5073320;28;20476;-74
2021/03/11 00:54:42;;;;;;;13.63;9.73;;;9.30;87.40;;;;;;5073374;28;20432;-74
2021/03/11 00:57:08;;;;;;;15.53;10.70;;;9.30;87.50;;;;;;5073009;28;20475;-75
2021/03/11 00:59:36;;;;;;;11.50;9.77;;;9.30;87.90;;;;;;5073342;28;20787;-74
2021/03/11 01:02:03;;;;;;;13.20;9.37;;;9.30;88.10;;;;;;5073292;28;20444;-74
2021/03/11 01:04:30;;;;;;;13.40;9.97;;;9.30;87.90;;;;;;5073277;28;20444;-74
2021/03/11 01:06:56;;;;;;;14.07;10.80;;;9.30;88.10;;;;;;5073149;28;20456;-75
2021/03/11 01:09:22;;;;;;;15.20;9.90;;;9.30;87.90;;;;;;5076336;28;20510;-75
2021/03/11 01:11:48;;;;;;;13.37;9.40;;;9.30;88.20;;;;;;5076987;28;20497;-74
2021/03/11 01:14:15;;;;;;;12.13;9.10;;;9.30;88.20;;;;;;5077126;28;20476;-75
2021/03/11 01:16:44;;;;;;;11.00;8.87;;;9.30;88.00;;;;;;5077203;28;20475;-75
2021/03/11 01:19:10;;;;;;;13.87;8.33;;;9.30;88.50;;;;;;5077135;28;20471;-74
2021/03/11 01:21:37;;;;;;;10.50;7.63;;;9.30;88.20;;;;;;5077091;28;20513;-75
2021/03/11 01:24:04;;;;;;;7.80;6.07;;;9.30;88.30;;;;;;5077026;28;20437;-75
2021/03/11 01:26:30;;;;;;;9.53;7.00;;;9.30;88.10;;;;;;5076690;28;20946;-74
2021/03/11 01:28:56;;;;;;;10.10;7.30;;;9.30;88.30;;;;;;5076884;28;20476;-75
2021/03/11 01:31:22;;;;;;;8.33;6.90;;;9.30;88.40;;;;;;5076899;28;20459;-75
2021/03/11 01:33:49;;;;;;;7.03;6.30;;;9.30;88.60;;;;;;5076452;28;20990;-75
2021/03/11 01:36:15;;;;;;;10.13;6.07;;;9.30;88.20;;;;;;5076786;28;20448;-75
2021/03/11 01:38:42;;;;;;;8.50;6.50;;;9.30;88.30;;;;;;5076369;28;20525;-75
2021/03/11 01:41:08;;;;;;;7.23;6.40;;;9.40;88.40;;;;;;5076676;28;20440;-74
2021/03/11 01:43:34;;;;;;;7.33;5.70;;;9.40;88.30;;;;;;5076347;28;20845;-75
2021/03/11 01:46:00;;;;;;;7.97;5.17;;;9.40;88.70;;;;;;5076622;28;20453;-75
2021/03/11 01:48:27;;;;;;;6.83;4.77;;;9.40;88.40;;;;;;5076181;28;21001;-75
2021/03/11 01:50:53;;;;;;;7.47;5.10;;;9.40;88.30;;;;;;5076528;28;20444;-75
2021/03/11 01:53:19;;;;;;;8.43;5.63;;;9.50;88.00;;;;;;5076382;28;20472;-75
2021/03/11 01:55:46;;;;;;;7.40;5.10;;;9.40;87.90;;;;;;5076453;28;20448;-75
2021/03/11 01:58:13;;;;;;;6.20;4.20;;;9.40;88.20;;;;;;5076316;28;20468;-74
2021/03/11 02:00:39;;;;;;;5.80;4.30;;;9.50;88.10;;;;;;5076331;28;20452;-74
2021/03/11 02:03:05;;;;;;;7.40;5.13;;;9.40;88.10;;;;;;5076708;28;20844;-75
2021/03/11 02:05:32;;;;;;;5.87;4.40;;;9.50;88.30;;;;;;5076193;28;20468;-75
2021/03/11 02:07:58;;;;;;;5.07;4.20;;;9.50;88.30;;;;;;5076352;28;20468;-75
2021/03/11 02:10:26;;;;;;;5.93;4.47;;;9.50;88.20;;;;;;5076245;28;20445;-75
2021/03/11 02:13:13;;;;;;;6.80;4.83;;;9.50;88.10;;;;;;5076144;28;20476;-75
2021/03/11 02:15:48;;;;;;;9.53;4.60;;;9.50;87.70;;;;;;5076164;28;20436;-75
2021/03/11 02:18:18;;;;;;;5.43;4.10;;;9.50;88.00;;;;;;5075981;28;20522;-74
2021/03/11 02:20:53;;;;;;;4.67;4.13;;;9.50;87.80;;;;;;5075777;28;20444;-75
2021/03/11 02:23:48;;;;;;;4.30;3.63;;;9.60;88.10;;;;;;5075974;28;20436;-75
2021/03/11 02:26:28;;;;;;;7.67;3.67;;;9.50;88.00;;;;;;5044903;28;20445;-75
2021/03/11 02:29:02;;;;;;;4.30;3.90;;;9.50;88.10;;;;;;5075886;28;20562;-75
2021/03/11 02:31:31;;;;;;;4.27;3.60;;;9.60;88.30;;;;;;5075862;28;20439;-75
2021/03/11 02:33:58;;;;;;;6.80;3.73;;;9.50;87.80;;;;;;5075692;28;20487;-75
2021/03/11 02:36:26;;;;;;;4.90;3.77;;;9.60;88.20;;;;;;5075652;28;20953;-75
2021/03/11 02:38:55;;;;;;;4.57;4.17;;;9.60;88.00;;;;;;5075670;28;20456;-75
2021/03/11 02:41:23;;;;;;;6.30;3.47;;;9.50;88.00;;;;;;5075418;28;20903;-75
2021/03/11 02:43:50;;;;;;;3.23;2.80;;;9.60;88.10;;;;;;5075602;28;20441;-75
2021/03/11 02:46:18;;;;;;;4.60;3.90;;;9.60;88.90;;;;;;5075442;28;20455;-75
2021/03/11 02:48:47;;;;;;;3.80;3.03;;;9.60;88.20;;;;;;5075391;28;20464;-75
2021/03/11 02:51:14;;;;;;;4.70;3.70;;;9.60;88.00;;;;;;5075691;28;20445;-75
2021/03/11 02:53:41;;;;;;;3.43;3.13;;;9.60;88.00;;;;;;5075315;28;20492;-75
2021/03/11 02:56:09;;;;;;;4.90;3.60;;;9.70;88.30;;;;;;5075298;28;20444;-74
2021/03/11 02:58:36;;;;;;;3.90;2.80;;;9.70;88.10;;;;;;5075254;28;20469;-75
2021/03/11 03:01:03;;;;;;;4.70;3.40;;;9.70;88.10;;;;;;5074956;28;21012;-75
2021/03/11 03:03:30;;;;;;;3.50;3.20;;;9.70;88.20;;;;;;5075196;28;20448;-75
2021/03/11 03:05:57;;;;;;;4.60;3.40;;;9.70;88.40;;;;;;5075069;28;20460;-74
2021/03/11 03:08:25;;;;;;;3.90;3.50;;;9.70;88.60;;;;;;5075045;28;20534;-75
2021/03/11 03:10:53;;;;;;;4.47;3.37;;;9.70;88.60;;;;;;5075163;28;20449;-75
2021/03/11 03:13:21;;;;;;;3.80;3.40;;;9.70;88.90;;;;;;5074914;28;20487;-75
2021/03/11 03:15:48;;;;;;;8.60;3.40;;;9.70;89.00;;;;;;5074952;28;20451;-75
2021/03/11 03:18:16;;;;;;;4.43;3.50;;;9.70;89.20;;;;;;5074834;28;20461;-75
2021/03/11 03:20:43;;;;;;;5.00;3.60;;;9.70;89.50;;;;;;5074856;28;20445;-75
2021/03/11 03:23:10;;;;;;;4.17;3.77;;;9.70;89.80;;;;;;5074805;28;20441;-75
2021/03/11 03:25:36;;;;;;;4.10;3.57;;;9.70;89.90;;;;;;5074460;28;20456;-75
2021/03/11 03:28:03;;;;;;;3.90;3.50;;;9.70;90.00;;;;;;5074694;28;20461;-74
2021/03/11 03:30:29;;;;;;;7.07;5.17;;;9.70;90.20;;;;;;5073797;28;20912;-75
2021/03/11 03:32:55;;;;;;;13.17;4.30;;;9.70;90.30;;;;;;5074177;28;20480;-75
2021/03/11 03:35:22;;;;;;;4.90;4.03;;;9.70;90.30;;;;;;5074606;28;20455;-75
2021/03/11 03:37:50;;;;;;;4.50;3.70;;;9.70;90.50;;;;;;5074447;28;20472;-75
2021/03/11 03:40:17;;;;;;;7.17;3.73;;;9.70;90.80;;;;;;5074445;28;20498;-75
2021/03/11 03:42:51;;;;;;;6.27;4.73;;;9.70;91.00;;;;;;5074445;28;20445;-75
2021/03/11 03:45:22;;;;;;;6.10;4.40;;;9.60;91.20;;;;;;5074616;28;20428;-75
2021/03/11 03:47:49;;;;;;;5.10;4.60;;;9.60;91.50;;;;;;5073936;28;20512;-75
2021/03/11 03:50:17;;;;;;;6.50;4.60;;;9.60;91.60;;;;;;5073990;28;20935;-75
2021/03/11 03:52:44;;;;;;;5.20;4.80;;;9.50;91.80;;;;;;5074146;28;20507;-74
2021/03/11 03:55:12;;;;;;;5.63;4.50;;;9.50;91.90;;;;;;5074420;28;20444;-75
2021/03/11 03:57:43;;;;;;;6.03;4.83;;;9.50;91.90;;;;;;5074076;28;20467;-75
2021/03/11 04:00:10;;;;;;;5.77;5.00;;;9.50;91.80;;;;;;5074052;28;20486;-74
2021/03/11 04:02:37;;;;;;;6.00;4.57;;;9.50;91.90;;;;;;5073738;28;20441;-75
2021/03/11 04:05:05;;;;;;;5.30;4.30;;;9.50;91.90;;;;;;5073666;28;20498;-75
2021/03/11 04:07:33;;;;;;;4.33;3.93;;;9.50;92.00;;;;;;5074475;28;20483;-75
2021/03/11 04:10:00;;;;;;;5.30;4.70;;;9.50;91.90;;;;;;5073960;28;20796;-75
2021/03/11 04:12:27;;;;;;;6.13;4.70;;;9.50;91.90;;;;;;5073515;28;20846;-75
2021/03/11 04:14:54;;;;;;;5.03;4.53;;;9.50;91.90;;;;;;5074076;28;20502;-75
2021/03/11 04:17:21;;;;;;;6.77;5.13;;;9.50;91.80;;;;;;5073686;28;20445;-75
2021/03/11 04:19:48;;;;;;;6.50;4.30;;;9.50;91.90;;;;;;5073797;28;20473;-75
2021/03/11 04:22:15;;;;;;;4.53;4.13;;;9.50;92.20;;;;;;5073706;28;20441;-75
2021/03/11 04:24:42;;;;;;;5.73;4.50;;;9.60;91.80;;;;;;5073703;28;20483;-75
2021/03/11 04:27:09;;;;;;;5.60;4.97;;;9.60;91.90;;;;;;5073333;28;20911;-75
2021/03/11 04:29:37;;;;;;;5.90;4.50;;;9.60;91.80;;;;;;5073406;28;20808;-75
2021/03/11 04:32:04;;;;;;;5.20;4.13;;;9.60;91.80;;;;;;5073645;28;20543;-75
2021/03/11 04:34:33;;;;;;;5.70;3.70;;;9.70;91.80;;;;;;5073171;28;20507;-75
2021/03/11 04:36:59;;;;;;;5.70;3.97;;;9.70;91.80;;;;;;5073552;28;20456;-75
2021/03/11 04:39:26;;;;;;;4.60;3.80;;;9.70;91.70;;;;;;5073526;28;20517;-75
2021/03/11 04:41:54;;;;;;;5.13;4.53;;;9.80;91.80;;;;;;5073577;28;20444;-75
2021/03/11 04:44:22;;;;;;;7.00;4.27;;;9.70;91.60;;;;;;5073180;28;20444;-75
2021/03/11 04:46:49;;;;;;;5.80;4.30;;;9.80;91.60;;;;;;5073491;28;20449;-75
2021/03/11 04:49:16;;;;;;;4.30;3.90;;;9.80;91.50;;;;;;5073139;28;20974;-75
2021/03/11 04:51:43;;;;;;;5.70;4.23;;;9.90;91.80;;;;;;5073450;28;20449;-75
2021/03/11 04:54:10;;;;;;;5.53;3.90;;;9.90;91.30;;;;;;5073303;28;20472;-75
2021/03/11 04:56:36;;;;;;;4.77;3.90;;;9.90;91.40;;;;;;5073309;28;20967;-75
2021/03/11 04:59:03;;;;;;;4.83;3.50;;;9.90;91.50;;;;;;5073286;28;20871;-75
2021/03/11 05:01:35;;;;;;;6.07;4.10;;;9.90;91.50;;;;;;5073572;28;20441;-75
2021/03/11 05:04:04;;;;;;;8.23;4.23;;;10.00;90.80;;;;;;5073358;28;20460;-75
2021/03/11 05:06:30;;;;;;;5.13;3.80;;;10.00;90.80;;;;;;5073033;28;20468;-75
2021/03/11 05:08:56;;;;;;;5.73;3.97;;;10.00;90.70;;;;;;5073216;28;20461;-75
2021/03/11 05:11:23;;;;;;;4.33;3.43;;;10.00;90.80;;;;;;5072917;28;20951;-75
2021/03/11 05:13:49;;;;;;;4.30;3.60;;;10.10;90.90;;;;;;5073106;28;20484;-75
2021/03/11 05:16:16;;;;;;;5.73;3.90;;;10.20;90.70;;;;;;5073090;28;20943;-75
2021/03/11 05:18:42;;;;;;;4.83;4.30;;;10.20;91.00;;;;;;5073098;28;20468;-75
2021/03/11 05:21:09;;;;;;;7.10;3.90;;;10.20;91.50;;;;;;5072878;28;20463;-75
2021/03/11 05:23:36;;;;;;;9.40;4.60;;;10.20;91.90;;;;;;5073094;28;20444;-75
2021/03/11 05:26:02;;;;;;;4.73;4.27;;;10.10;92.30;;;;;;5073037;28;20444;-75
2021/03/11 05:28:29;;;;;;;6.17;4.60;;;10.10;92.30;;;;;;5073275;28;20464;-75
2021/03/11 05:30:55;;;;;;;9.10;4.27;;;10.10;92.70;;;;;;5073105;28;20855;-75
2021/03/11 05:33:21;;;;;;;7.67;5.73;;;10.20;92.90;;;;;;5073005;28;20479;-75
2021/03/11 05:35:47;;;;;;;6.00;4.60;;;10.10;92.90;;;;;;5073011;28;20448;-75
2021/03/11 05:38:14;;;;;;;7.60;4.77;;;10.10;93.00;;;;;;5072598;28;20970;-74
2021/03/11 05:40:41;;;;;;;4.80;4.20;;;10.10;93.00;;;;;;5072899;28;20447;-75
2021/03/11 05:43:08;;;;;;;4.90;4.40;;;10.20;93.20;;;;;;5073108;28;20468;-75
2021/03/11 05:45:35;;;;;;;5.77;4.60;;;10.20;93.00;;;;;;5072869;28;20449;-75
2021/03/11 05:48:02;;;;;;;5.00;4.50;;;10.10;93.10;;;;;;5072490;28;20813;-75
2021/03/11 05:50:28;;;;;;;5.30;4.73;;;10.20;93.20;;;;;;5072712;28;20441;-75
2021/03/11 05:52:56;;;;;;;5.10;3.80;;;10.20;93.10;;;;;;5072805;28;20530;-75
2021/03/11 05:55:24;;;;;;;6.70;4.20;;;10.20;93.00;;;;;;5075548;28;20872;-75
2021/03/11 05:57:50;;;;;;;5.30;4.30;;;10.20;93.10;;;;;;5076341;28;20496;-75
2021/03/11 06:00:19;;;;;;;6.20;5.40;;;10.20;92.90;;;;;;5076032;28;20849;-75
2021/03/11 06:02:48;;;;;;;5.80;4.40;;;10.20;93.00;;;;;;5076335;28;20417;-75
2021/03/11 06:05:15;;;;;;;5.17;4.30;;;10.20;92.80;;;;;;5076149;28;20452;-74
2021/03/11 06:07:44;;;;;;;5.40;4.30;;;10.30;93.00;;;;;;5076133;28;20465;-74
2021/03/11 06:10:11;;;;;;;4.07;3.67;;;10.30;92.80;;;;;;5076203;28;20441;-75
2021/03/11 06:12:40;;;;;;;4.47;3.77;;;10.40;92.60;;;;;;5076387;28;20421;-75
2021/03/11 06:15:11;;;;;;;4.53;4.13;;;10.40;92.40;;;;;;5076111;28;20445;-75
2021/03/11 06:17:40;;;;;;;6.00;5.30;;;10.40;92.30;;;;;;5076345;28;20460;-75
2021/03/11 06:20:07;;;;;;;6.07;4.50;;;10.40;92.30;;;;;;5075706;28;20462;-75
2021/03/11 06:22:34;;;;;;;8.17;4.60;;;10.50;92.20;;;;;;5075957;28;20441;-75
2021/03/11 06:25:00;;;;;;;5.23;4.03;;;10.60;92.10;;;;;;5076013;28;20457;-75
2021/03/11 06:27:27;;;;;;;5.43;4.87;;;10.60;92.00;;;;;;5075881;28;20841;-75
2021/03/11 06:29:56;;;;;;;5.80;4.63;;;10.60;92.00;;;;;;5075874;28;20444;-75
2021/03/11 06:32:23;;;;;;;5.20;4.70;;;10.60;91.90;;;;;;5075805;28;20448;-75
2021/03/11 06:34:49;;;;;;;7.10;4.40;;;10.60;92.00;;;;;;5075476;28;20437;-75
2021/03/11 06:37:21;;;;;;;6.60;4.70;;;10.70;92.00;;;;;;5075673;28;20782;-75
2021/03/11 06:39:47;;;;;;;5.73;4.47;;;10.70;91.90;;;;;;5075692;28;20433;-73
2021/03/11 06:42:24;;;;;;;4.70;4.20;;;10.70;91.90;;;;;;5075263;28;20997;-77
2021/03/11 06:44:51;;;;;;;6.33;4.43;;;10.70;91.80;;;;;;5075612;28;20459;-75
2021/03/11 06:47:18;;;;;;;6.47;4.20;;;10.70;91.70;;;;;;5075494;28;20424;-75
2021/03/11 06:49:57;;;;;;;8.67;4.70;;;10.80;91.80;;;;;;5075189;28;20438;-75
2021/03/11 06:52:23;;;;;;;4.37;3.97;;;10.80;91.80;;;;;;5075522;28;20433;-75
2021/03/11 06:54:57;;;;;;;4.80;4.30;;;10.90;91.70;;;;;;5075402;28;20456;-75
2021/03/11 06:57:34;;;;;;;4.87;4.37;;;10.90;91.80;;;;;;5075313;28;20425;-75
2021/03/11 07:00:01;;;;;;;6.17;4.70;;;11.00;91.40;;;;;;5075316;28;20436;-74
2021/03/11 07:02:29;;;;;;;5.37;4.27;;;11.00;91.40;;;;;;5075151;28;20440;-74
2021/03/11 07:04:56;;;;;;;5.20;4.40;;;11.00;91.40;;;;;;5074819;28;20444;-74
2021/03/11 07:07:24;;;;;;;5.20;4.20;;;11.10;91.40;;;;;;5074285;28;20459;-74
2021/03/11 07:09:52;;;;;;;5.53;3.90;;;11.10;91.50;;;;;;5074970;28;20965;-74
2021/03/11 07:12:19;;;;;;;6.40;4.00;;;11.10;91.50;;;;;;5075061;28;20486;-74
2021/03/11 07:14:48;;;;;;;4.67;3.70;;;11.20;91.60;;;;;;5075456;28;20481;-74
2021/03/11 07:17:23;;;;;;;8.13;4.70;;;11.10;91.50;;;;;;5074609;28;20985;-74
2021/03/11 07:20:08;;;;;;;6.93;4.33;;;11.20;91.50;;;;;;5074614;28;20452;-73
2021/03/11 07:22:35;;;;;;;7.90;4.67;;;11.20;91.30;;;;;;5074627;28;20499;-73
2021/03/11 07:25:01;;;;;;;5.17;4.57;;;11.20;91.30;;;;;;5074838;28;20883;-73
2021/03/11 07:27:39;;;;;;;7.53;3.73;;;11.30;91.40;;;;;;5074661;28;20472;-74
2021/03/11 07:30:06;;;;;;;4.30;3.90;;;11.40;91.20;;;;;;5074743;28;20436;-73
2021/03/11 07:32:34;;;;;;;4.37;3.90;;;11.40;91.00;;;;;;5074397;28;20447;-75
2021/03/11 07:35:01;;;;;;;4.63;3.90;;;11.50;90.90;;;;;;5074466;28;20447;-75
2021/03/11 07:37:28;;;;;;;14.53;4.77;;;11.60;90.70;;;;;;5074327;28;20504;-73
2021/03/11 07:39:58;;;;;;;6.07;3.73;;;11.70;90.50;;;;;;5074132;28;20475;-73
2021/03/11 07:42:24;;;;;;;5.30;4.00;;;11.80;90.40;;;;;;5074049;28;20502;-76
2021/03/11 07:44:51;;;;;;;7.10;4.27;;;11.90;90.40;;;;;;5073989;28;20805;-74
2021/03/11 07:47:18;;;;;;;4.30;3.60;;;12.00;90.20;;;;;;5074274;28;20487;-74
2021/03/11 07:49:45;;;;;;;5.70;3.30;;;12.10;89.60;;;;;;5074351;28;20539;-75
2021/03/11 07:52:12;;;;;;;5.47;3.97;;;12.10;89.30;;;;;;5074258;28;20441;-75
2021/03/11 07:54:39;;;;;;;5.03;3.90;;;12.20;89.50;;;;;;5074845;28;20581;-75
2021/03/11 07:57:06;;;;;;;4.00;3.60;;;12.30;89.30;;;;;;5074700;28;20448;-75
2021/03/11 07:59:33;;;;;;;4.33;3.93;;;12.30;89.20;;;;;;5073821;28;20971;-74
2021/03/11 08:02:02;;;;;;;3.90;3.27;;;12.40;88.60;;;;;;5074015;28;20536;-74
2021/03/11 08:04:32;;;;;;;6.30;3.33;;;12.40;88.30;;;;;;5074100;28;20444;-74
2021/03/11 08:07:19;;;;;;;9.43;3.97;;;12.50;88.30;;;;;;5073938;28;20514;-74
2021/03/11 08:09:48;;;;;;;7.70;3.63;;;12.60;88.20;;;;;;5074024;28;20451;-74
2021/03/11 08:12:36;;;;;;;3.33;3.03;;;12.50;87.20;;;;;;5073951;28;20539;-76
2021/03/11 08:15:06;;;;;;;4.03;3.10;;;12.60;86.70;;;;;;5073967;28;20424;-73
2021/03/11 08:17:43;;;;;;;5.63;2.50;;;12.60;85.40;;;;;;5073457;28;20471;-75
2021/03/11 08:20:38;;;;;;;4.57;1.90;;;12.60;83.50;;;;;;5073872;28;20429;-74
2021/03/11 08:23:10;;;;;;;6.10;3.77;;;12.50;83.30;;;;;;5074059;28;20413;-74
2021/03/11 08:25:50;;;;;;;2.83;1.90;;;12.50;83.90;;;;;;5073787;28;20421;-73
2021/03/11 08:28:46;;;;;;;14.63;2.83;;;12.40;85.00;;;;;;5073588;28;20876;-73
2021/03/11 08:31:13;;;;;;;5.67;1.73;;;12.20;87.20;;;;;;5073710;28;20433;-73
2021/03/11 08:33:47;;;;;;;7.23;2.63;;;11.90;88.20;;;;;;5073561;28;20969;-72
2021/03/11 08:36:36;;;;;;;6.60;1.77;;;11.60;90.50;;;;;;5073609;28;20431;-75
2021/03/11 08:39:18;;;;;;;10.10;1.97;;;11.30;91.00;;;;;;5073474;28;20476;-74
2021/03/11 08:41:45;;;;;;;9.20;2.30;;;11.10;91.80;;;;;;5060506;28;20449;-74
2021/03/11 08:44:11;;;;;;;6.37;1.93;;;11.00;92.40;;;;;;5073507;28;20440;-75
2021/03/11 08:46:52;;;;;;;4.17;1.60;;;10.90;92.60;;;;;;5073422;28;20441;-75
2021/03/11 08:49:40;;;;;;;6.27;2.40;;;10.70;92.80;;;;;;5073361;28;20460;-75
2021/03/11 08:52:07;;;;;;;8.33;1.40;;;10.60;92.60;;;;;;5073466;28;20429;-74
2021/03/11 08:54:33;;;;;;;4.80;1.20;;;10.50;93.10;;;;;;5073084;28;20809;-74
2021/03/11 08:57:00;;;;;;;7.23;2.93;;;10.40;93.10;;;;;;5073266;28;20441;-75
2021/03/11 08:59:53;;;;;;;14.03;2.47;;;10.40;93.70;;;;;;5073269;28;20492;-75
2021/03/11 09:02:33;;;;;;;14.50;4.07;;;10.40;93.10;;;;;;5037377;28;20453;-73
2021/03/11 09:05:00;;;;;;;7.50;1.90;;;10.40;93.30;;;;;;5073154;28;20424;-75
2021/03/11 09:07:32;;;;;;;9.63;2.87;;;10.40;93.50;;;;;;5073215;28;20455;-75
2021/03/11 09:09:58;;;;;;;5.37;2.17;;;10.40;93.70;;;;;;5073253;28;20570;-75
2021/03/11 09:12:33;;;;;;;6.13;1.83;;;10.40;93.70;;;;;;5073220;28;20436;-73
2021/03/11 09:15:00;;;;;;;12.10;2.83;;;10.50;93.20;;;;;;5073143;28;20486;-74
2021/03/11 09:17:28;;;;;;;6.50;1.50;;;10.60;93.40;;;;;;5073072;28;20501;-74
2021/03/11 09:20:00;;;;;;;11.97;2.37;;;10.50;92.90;;;;;;5073170;28;20451;-74
2021/03/11 09:22:29;;;;;;;12.40;3.30;;;10.60;92.30;;;;;;5073104;28;21007;-74
2021/03/11 09:25:05;;;;;;;10.80;3.40;;;10.60;92.40;;;;;;5073123;28;20425;-74
2021/03/11 09:27:33;;;;;;;10.10;2.80;;;10.60;92.40;;;;;;5073046;28;20487;-74
2021/03/11 09:30:01;;;;;;;10.20;2.57;;;10.60;92.40;;;;;;5075003;28;21008;-74
2021/03/11 09:32:29;;;;;;;10.00;3.17;;;10.60;92.70;;;;;;5077026;28;20453;-74
2021/03/11 09:34:56;;;;;;;9.50;2.13;;;10.60;92.80;;;;;;5077405;28;20519;-74
2021/03/11 09:37:42;;;;;;;17.50;3.50;;;10.60;92.80;;;;;;5076733;28;20444;-74
2021/03/11 09:40:10;;;;;;;11.40;2.17;;;10.70;92.60;;;;;;5076789;28;20439;-75
2021/03/11 09:42:37;;;;;;;9.57;2.90;;;10.70;92.80;;;;;;5076720;28;20482;-75
2021/03/11 09:45:04;;;;;;;12.90;2.83;;;10.80;92.60;;;;;;5076706;28;20437;-75
2021/03/11 09:47:31;;;;;;;14.50;3.20;;;11.00;92.70;;;;;;5076582;28;20464;-75
2021/03/11 09:50:07;;;;;;;11.70;2.93;;;11.10;92.30;;;;;;5076578;28;20429;-75
2021/03/11 09:52:34;;;;;;;12.20;3.10;;;11.30;91.70;;;;;;5076503;28;20456;-75
2021/03/11 09:55:00;;;;;;;12.60;3.00;;;11.40;91.10;;;;;;5076356;28;20476;-73
2021/03/11 09:57:28;;;;;;;15.90;3.27;;;11.60;90.00;;;;;;5076353;28;20494;-73
2021/03/11 09:59:55;;;;;;;12.77;2.63;;;11.80;90.00;;;;;;5076456;28;20452;-74
2021/03/11 10:02:21;;;;;;;17.20;2.70;;;12.00;87.60;;;;;;5076363;28;20455;-73
2021/03/11 10:04:47;;;;;;;13.50;3.63;;;12.10;86.80;;;;;;5076179;28;20437;-73
2021/03/11 10:07:14;;;;;;;11.80;3.90;;;12.30;85.30;;;;;;5076185;28;20445;-74
2021/03/11 10:09:42;;;;;;;10.43;2.90;;;12.50;84.90;;;;;;5076171;28;20441;-73
2021/03/11 10:12:08;;;;;;;12.73;3.07;;;12.70;83.80;;;;;;5076144;28;20796;-73
2021/03/11 10:14:35;;;;;;;6.57;2.03;;;12.90;80.60;;;;;;5075981;28;20480;-73
2021/03/11 10:17:06;;;;;;;12.73;4.03;;;13.00;78.50;;;;;;5076046;28;20447;-73
2021/03/11 10:19:34;;;;;;;12.00;2.83;;;13.10;78.40;;;;;;5076031;28;20461;-73
2021/03/11 10:22:03;;;;;;;6.97;2.27;;;13.20;77.00;;;;;;5076017;28;20441;-73
2021/03/11 10:24:35;;;;;;;16.83;2.90;;;13.50;78.90;;;;;;5075666;28;20444;-73
2021/03/11 10:27:02;;;;;;;6.97;2.33;;;13.70;77.30;;;;;;5075987;28;20449;-74
2021/03/11 10:29:31;;;;;;;8.60;2.43;;;13.90;76.80;;;;;;5076883;28;20461;-74
2021/03/11 10:31:58;;;;;;;11.23;3.23;;;13.90;73.50;;;;;;5075758;28;20433;-73
2021/03/11 10:34:26;;;;;;;10.10;2.13;;;13.90;73.20;;;;;;5075706;28;20534;-75
2021/03/11 10:36:57;;;;;;;9.17;2.03;;;14.10;72.10;;;;;;5075757;28;20444;-73
2021/03/11 10:39:24;;;;;;;7.70;1.67;;;14.30;70.00;;;;;;5075537;28;20473;-74
2021/03/11 10:42:00;;;;;;;17.67;3.63;;;14.30;69.70;;;;;;5075659;28;20444;-74
2021/03/11 10:44:27;;;;;;;6.43;1.73;;;14.50;67.00;;;;;;5075736;28;20432;-73
2021/03/11 10:47:10;;;;;;;9.27;2.03;;;14.60;64.80;;;;;;5075574;28;20452;-74
2021/03/11 10:49:39;;;;;;;7.50;1.90;;;14.80;65.10;;;;;;5075577;28;20433;-75
2021/03/11 10:52:05;;;;;;;9.77;2.40;;;15.00;63.50;;;;;;5075383;28;20574;-73
2021/03/11 10:54:32;;;;;;;8.43;1.87;;;15.00;61.50;;;;;;5075059;28;21021;-75
2021/03/11 10:57:07;;;;;;;10.07;1.80;;;15.10;60.50;;;;;;5075120;28;20445;-75
2021/03/11 10:59:50;;;;;;;6.07;2.07;;;15.30;57.70;;;;;;5075248;28;20812;-75
2021/03/11 11:02:17;;;;;;;5.90;1.97;;;15.40;58.30;;;;;;5075254;28;20425;-73
2021/03/11 11:04:44;;;;;;;9.53;2.30;;;15.40;55.00;;;;;;5075116;28;20452;-73
2021/03/11 11:07:11;;;;;;;10.73;2.63;;;15.20;55.20;;;;;;5075144;28;20444;-73
2021/03/11 11:09:39;;;;;;;5.53;1.73;;;15.00;56.00;;;;;;5074850;28;20812;-73
2021/03/11 11:12:08;;;;;;;9.60;1.90;;;15.20;55.60;;;;;;5075081;28;20441;-73
2021/03/11 11:14:34;;;;;;;15.73;2.90;;;14.80;54.90;;;;;;5074942;28;20902;-74
2021/03/11 11:17:00;;;;;;;13.60;2.93;;;14.90;56.70;;;;;;5074898;28;20445;-73
2021/03/11 11:19:27;;;;;;;12.47;3.10;;;14.80;54.40;;;;;;5074951;28;20468;-73
2021/03/11 11:21:54;;;;;;;11.90;3.10;;;14.90;55.60;;;;;;5075075;28;20440;-75
2021/03/11 11:24:20;;;;;;;16.47;3.40;;;14.90;54.50;;;;;;5074918;28;20428;-73
2021/03/11 11:26:46;;;;;;;14.47;3.70;;;15.00;55.10;;;;;;5074721;28;20448;-73
2021/03/11 11:29:12;;;;;;;24.57;3.60;;;15.20;54.30;;;;;;5074386;28;20494;-75
2021/03/11 11:31:39;;;;;;;18.47;2.90;;;15.20;54.50;;;;;;5074684;28;20479;-73
2021/03/11 11:34:06;;;;;;;21.50;4.07;;;15.20;56.20;;;;;;5074564;28;20484;-73
2021/03/11 11:36:32;;;;;;;16.53;2.90;;;15.20;55.50;;;;;;5074210;28;21025;-73
2021/03/11 11:38:59;;;;;;;12.63;4.10;;;15.10;54.30;;;;;;5074503;28;20464;-75
2021/03/11 11:41:26;;;;;;;15.17;3.00;;;14.80;54.80;;;;;;5074450;28;20452;-75
2021/03/11 11:43:52;;;;;;;26.37;5.50;;;14.60;56.30;;;;;;5074447;28;20441;-75
2021/03/11 11:46:18;;;;;;;19.70;3.63;;;14.50;55.70;;;;;;5073987;28;20813;-75
2021/03/11 11:48:44;;;;;;;26.73;5.07;;;14.30;54.50;;;;;;5074352;28;20541;-75
2021/03/11 11:51:11;;;;;;;16.03;2.80;;;14.20;56.00;;;;;;5074115;28;20494;-75
2021/03/11 11:53:37;;;;;;;17.03;3.67;;;14.10;56.60;;;;;;5073776;28;20499;-75
2021/03/11 11:56:05;;;;;;;16.00;2.93;;;14.20;56.60;;;;;;5074241;28;20425;-75
2021/03/11 11:58:31;;;;;;;17.37;3.93;;;14.30;56.70;;;;;;5074176;28;20522;-75
2021/03/11 12:00:57;;;;;;;21.77;4.93;;;14.80;56.50;;;;;;5074214;28;20444;-75
2021/03/11 12:03:23;;;;;;;13.93;3.40;;;15.50;54.50;;;;;;5074149;28;20429;-75
2021/03/11 12:05:50;;;;;;;23.67;4.50;;;15.90;53.40;;;;;;5073834;28;20475;-75
2021/03/11 12:08:16;;;;;;;21.73;3.70;;;16.00;52.00;;;;;;5073923;28;20525;-75
2021/03/11 12:10:42;;;;;;;11.97;3.77;;;16.30;52.60;;;;;;5073646;28;20903;-75
2021/03/11 12:13:09;;;;;;;15.13;3.27;;;16.70;51.70;;;;;;5074082;28;20443;-74
2021/03/11 12:15:35;;;;;;;13.33;2.97;;;16.70;50.40;;;;;;5074057;28;20448;-74
2021/03/11 12:18:02;;;;;;;9.50;3.00;;;16.70;48.60;;;;;;5073805;28;20460;-74
2021/03/11 12:20:28;;;;;;;20.20;3.73;;;16.60;50.20;;;;;;5073807;28;20445;-74
2021/03/11 12:22:54;;;;;;;18.70;3.90;;;16.50;50.10;;;;;;5073750;28;20456;-74
2021/03/11 12:25:20;;;;;;;9.80;3.23;;;16.10;50.90;;;;;;5073957;28;20490;-74
2021/03/11 12:27:47;;;;;;;17.07;4.30;;;16.30;50.00;;;;;;5073612;28;20465;-74
2021/03/11 12:30:15;;;;;;;16.07;3.17;;;16.50;49.90;;;;;;5073722;28;20440;-75
2021/03/11 12:32:41;;;;;;;16.20;3.30;;;16.70;49.40;;;;;;5073582;28;20453;-75
2021/03/11 12:35:08;;;;;;;20.13;3.37;;;16.30;49.30;;;;;;5073500;28;20480;-75
2021/03/11 12:37:34;;;;;;;15.77;2.67;;;15.70;50.80;;;;;;5073551;28;20467;-75
2021/03/11 12:40:00;;;;;;;10.43;2.67;;;15.30;50.90;;;;;;5073610;28;20440;-74
2021/03/11 12:42:27;;;;;;;20.60;3.60;;;15.20;51.20;;;;;;5073489;28;20449;-74
2021/03/11 12:44:53;;;;;;;22.10;2.83;;;15.60;52.70;;;;;;5073515;28;20451;-73
2021/03/11 12:47:20;;;;;;;13.53;2.87;;;16.00;52.20;;;;;;5073401;28;20433;-74
2021/03/11 12:49:46;;;;;;;20.90;2.50;;;16.30;50.20;;;;;;5073521;28;20433;-75
2021/03/11 12:52:12;;;;;;;44.07;5.47;;;16.30;49.90;;;;;;5073386;28;20436;-74